Time;durP1;ratioP1;P1;durP2;ratioP2;P2;SDS_P1;SDS_P2;PMS_P1;PMS_P2;Temp;Humidity;BMP_temperature;BMP_pressure;BME280_temperature;BME280_humidity;BME280_pressure;Samples;Min_cycle;Max_cycle;Signal;HPM_P1;HPM_P2
2021/07/10 00:03:28;;;;;;;0.10;0.10;;;;;;;14.91;90.37;101884.53;10470143;28;20013;-62
2021/07/10 00:08:29;;;;;;;0.10;0.10;;;;;;;14.89;90.40;101878.50;10478476;28;20025;-62
2021/07/10 00:13:29;;;;;;;0.10;0.10;;;;;;;14.86;90.28;101868.06;10413096;22;20046;-65
2021/07/10 00:18:29;;;;;;;0.10;0.10;;;;;;;14.85;90.90;101870.94;10367173;28;20025;-65
2021/07/10 00:23:30;;;;;;;0.10;0.10;;;;;;;14.81;90.58;101867.75;10367022;28;20018;-65
2021/07/10 00:28:30;;;;;;;0.10;0.10;;;;;;;14.79;91.08;101864.38;10370772;28;20145;-65
2021/07/10 00:33:30;;;;;;;0.10;0.10;;;;;;;14.75;90.67;101860.34;10391607;28;20017;-65
2021/07/10 00:38:31;;;;;;;0.10;0.10;;;;;;;14.68;90.81;101853.94;10415675;28;20091;-65
2021/07/10 00:43:31;;;;;;;0.10;0.10;;;;;;;14.61;90.92;101858.28;10390363;28;20014;-64
2021/07/10 00:48:31;;;;;;;0.10;0.10;;;;;;;14.56;91.29;101855.22;10374667;28;20304;-66
2021/07/10 00:53:32;;;;;;;0.10;0.10;;;;;;;14.51;91.63;101850.28;10372872;28;20022;-65
2021/07/10 00:58:34;;;;;;;0.10;0.10;;;;;;;14.50;91.41;101838.75;10374341;28;20022;-65
2021/07/10 01:03:34;;;;;;;0.10;0.10;;;;;;;14.48;91.49;101842.56;10372358;28;20026;-65
2021/07/10 01:08:35;;;;;;;0.10;0.10;;;;;;;14.45;92.05;101832.19;10374151;28;20040;-65
2021/07/10 01:13:35;;;;;;;0.10;0.10;;;;;;;14.45;91.94;101833.00;10382767;28;20033;-65
2021/07/10 01:18:36;;;;;;;0.10;0.10;;;;;;;14.45;91.85;101821.44;10414861;28;20029;-65
2021/07/10 01:23:36;;;;;;;0.05;0.05;;;;;;;14.44;91.55;101811.75;10413361;28;20309;-64
2021/07/10 01:28:36;;;;;;;0.10;0.10;;;;;;;14.39;91.91;101809.53;10399113;28;20026;-64
2021/07/10 01:33:37;;;;;;;0.10;0.10;;;;;;;14.35;92.21;101805.50;10372428;28;20021;-65
2021/07/10 01:38:37;;;;;;;0.10;0.10;;;;;;;14.34;92.24;101803.84;10372913;28;20381;-64
2021/07/10 01:43:38;;;;;;;0.10;0.10;;;;;;;14.36;91.90;101804.50;10372255;28;20384;-64
2021/07/10 01:48:38;;;;;;;0.10;0.10;;;;;;;14.40;92.74;101792.47;10393020;28;20487;-65
2021/07/10 01:53:38;;;;;;;0.10;0.10;;;;;;;14.47;92.98;101793.50;10400227;28;20025;-64
2021/07/10 01:58:38;;;;;;;0.10;0.10;;;;;;;14.56;92.12;101781.00;10382965;28;20455;-66
2021/07/10 02:03:39;;;;;;;0.10;0.10;;;;;;;14.62;91.93;101774.97;10371408;28;20380;-65
2021/07/10 02:08:39;;;;;;;0.10;0.10;;;;;;;14.66;92.02;101775.47;10371989;28;20349;-64
2021/07/10 02:13:39;;;;;;;0.10;0.10;;;;;;;14.68;91.34;101771.63;10370642;28;20021;-64
2021/07/10 02:18:40;;;;;;;0.10;0.10;;;;;;;14.65;91.18;101771.13;10371202;28;20053;-65
2021/07/10 02:23:40;;;;;;;0.10;0.10;;;;;;;14.61;91.39;101770.63;10376179;28;20022;-64
2021/07/10 02:28:41;;;;;;;0.10;0.10;;;;;;;14.59;91.40;101769.09;10371070;28;20344;-64
2021/07/10 02:33:41;;;;;;;0.10;0.10;;;;;;;14.63;91.41;101763.25;10374868;28;20287;-65
2021/07/10 02:38:41;;;;;;;0.10;0.10;;;;;;;14.71;91.73;101763.25;10410867;28;20022;-65
2021/07/10 02:43:42;;;;;;;0.10;0.10;;;;;;;14.81;91.22;101763.16;10409416;28;20021;-65
2021/07/10 02:48:48;;;;;;;0.10;0.10;;;;;;;14.90;90.84;101762.16;10410603;28;20017;-66
2021/07/10 02:53:49;;;;;;;0.10;0.10;;;;;;;14.94;90.41;101760.81;10404125;28;20022;-65
2021/07/10 02:58:49;;;;;;;0.10;0.10;;;;;;;14.98;90.43;101760.47;10410254;28;20029;-66
2021/07/10 03:03:50;;;;;;;0.10;0.10;;;;;;;14.99;90.37;101756.81;10409410;28;20022;-63
2021/07/10 03:08:51;;;;;;;0.10;0.10;;;;;;;14.98;90.62;101755.09;10389750;28;20384;-63
2021/07/10 03:13:51;;;;;;;0.10;0.10;;;;;;;14.92;89.79;101751.25;10408902;28;20025;-63
2021/07/10 03:18:51;;;;;;;0.10;0.10;;;;;;;14.88;90.01;101747.22;10401978;28;20061;-64
2021/07/10 03:23:52;;;;;;;0.10;0.10;;;;;;;14.85;90.23;101756.44;10409020;28;20010;-65
2021/07/10 03:28:53;;;;;;;0.10;0.10;;;;;;;14.89;90.28;101754.25;10386771;28;20449;-66
2021/07/10 03:33:53;;;;;;;0.10;0.10;;;;;;;14.94;90.44;101757.28;10364425;28;20024;-65
2021/07/10 03:38:54;;;;;;;0.10;0.10;;;;;;;14.99;89.87;101751.44;10368297;28;20388;-64
2021/07/10 03:43:54;;;;;;;0.10;0.10;;;;;;;15.02;89.55;101753.78;10366613;28;20024;-64
2021/07/10 03:48:54;;;;;;;0.10;0.10;;;;;;;15.06;89.54;101765.84;10374658;28;20443;-66
2021/07/10 03:53:54;;;;;;;0.10;0.10;;;;;;;15.09;89.21;101763.69;10408354;28;20128;-66
2021/07/10 03:58:55;;;;;;;0.10;0.10;;;;;;;15.14;89.22;101777.44;10408935;28;20021;-66
2021/07/10 04:03:55;;;;;;;0.10;0.10;;;;;;;15.18;88.91;101775.25;10399020;28;20435;-65
2021/07/10 04:08:55;;;;;;;0.10;0.10;;;;;;;15.19;88.82;101766.22;10391484;28;20040;-65
2021/07/10 04:13:56;;;;;;;0.10;0.10;;;;;;;15.20;89.00;101767.06;10366929;28;20088;-65
2021/07/10 04:18:57;;;;;;;0.10;0.10;;;;;;;15.22;88.62;101765.06;10367649;28;20118;-65
2021/07/10 04:23:57;;;;;;;0.10;0.10;;;;;;;15.23;88.79;101762.19;10367004;28;20358;-65
2021/07/10 04:28:57;;;;;;;0.10;0.10;;;;;;;15.28;88.59;101762.53;10367398;28;20032;-66
2021/07/10 04:33:58;;;;;;;0.10;0.10;;;;;;;15.32;88.36;101766.53;10381628;28;20110;-65
2021/07/10 04:38:58;;;;;;;0.10;0.10;;;;;;;15.34;88.07;101764.53;10395519;28;20108;-65
2021/07/10 04:43:58;;;;;;;0.10;0.10;;;;;;;15.38;88.08;101776.59;10366413;28;20019;-65
2021/07/10 04:48:59;;;;;;;0.10;0.10;;;;;;;15.44;87.78;101769.72;10394084;28;20485;-65
2021/07/10 04:53:59;;;;;;;0.10;0.10;;;;;;;15.50;88.02;101771.75;10366302;28;20087;-65
2021/07/10 04:59:00;;;;;;;0.20;0.20;;;;;;;15.60;87.82;101763.53;10366449;28;20026;-65
2021/07/10 05:04:00;;;;;;;0.10;0.10;;;;;;;15.69;87.28;101767.06;10368151;28;20021;-65
2021/07/10 05:09:00;;;;;;;0.00;0.00;;;;;;;15.78;87.01;101768.75;10373125;28;20041;-65
2021/07/10 05:14:01;;;;;;;0.10;0.10;;;;;;;15.87;86.85;101759.66;10367825;28;20022;-65
2021/07/10 05:19:03;;;;;;;0.10;0.10;;;;;;;15.94;86.28;101762.47;10381896;28;20022;-64
2021/07/10 05:24:03;;;;;;;0.10;0.10;;;;;;;16.00;85.96;101756.44;10372786;28;20348;-65
2021/07/10 05:29:05;;;;;;;0.10;0.10;;;;;;;16.08;85.14;101756.41;10373263;28;20125;-64
2021/07/10 05:34:06;;;;;;;0.10;0.10;;;;;;;16.22;84.31;101757.53;10372906;28;20047;-66
2021/07/10 05:39:06;;;;;;;0.10;0.10;;;;;;;16.36;84.55;101751.44;10375789;28;20140;-65
2021/07/10 05:44:07;;;;;;;0.10;0.10;;;;;;;16.59;83.81;101745.28;10372164;28;20106;-65
2021/07/10 05:49:07;;;;;;;0.10;0.10;;;;;;;16.97;82.24;101746.25;10380766;28;20036;-65
2021/07/10 05:54:08;;;;;;;0.10;0.10;;;;;;;17.60;81.42;101745.06;10371730;28;20281;-65
2021/07/10 05:59:08;;;;;;;0.20;0.20;;;;;;;18.23;77.51;101740.19;10369491;28;20034;-65
2021/07/10 06:04:08;;;;;;;0.10;0.10;;;;;;;18.28;76.54;101736.94;10371968;28;20096;-65
2021/07/10 06:09:09;;;;;;;0.10;0.10;;;;;;;18.10;76.68;101740.03;10371609;28;20045;-66
2021/07/10 06:14:09;;;;;;;0.10;0.10;;;;;;;17.90;77.70;101741.59;10399150;22;20037;-64
2021/07/10 06:19:10;;;;;;;0.10;0.10;;;;;;;17.68;77.44;101751.38;10390499;28;20061;-64
2021/07/10 06:24:10;;;;;;;0.10;0.10;;;;;;;17.51;78.29;101764.16;10384948;28;20064;-64
2021/07/10 06:29:11;;;;;;;0.10;0.10;;;;;;;17.38;79.08;101770.16;10384567;28;20022;-64
2021/07/10 06:34:11;;;;;;;0.10;0.10;;;;;;;17.38;79.08;101767.47;10393040;28;20075;-65
2021/07/10 06:39:12;;;;;;;0.10;0.10;;;;;;;17.52;79.56;101771.25;10384260;28;20060;-64
2021/07/10 06:44:12;;;;;;;0.10;0.10;;;;;;;17.73;78.05;101774.06;10390440;28;20080;-65
2021/07/10 06:49:12;;;;;;;0.10;0.10;;;;;;;18.18;76.53;101776.81;10392718;28;20443;-64
2021/07/10 06:54:13;;;;;;;0.10;0.10;;;;;;;18.68;75.28;101770.63;10395866;28;20384;-64
2021/07/10 06:59:13;;;;;;;0.00;0.00;;;;;;;18.74;75.02;101785.25;10387188;28;20435;-64
2021/07/10 07:04:13;;;;;;;0.10;0.10;;;;;;;18.51;73.66;101796.97;10397222;28;20025;-64
2021/07/10 07:09:14;;;;;;;0.10;0.10;;;;;;;18.23;74.29;101791.41;10387310;28;20405;-64
2021/07/10 07:14:14;;;;;;;0.10;0.10;;;;;;;18.11;74.18;101784.81;10383308;28;20040;-64
2021/07/10 07:19:15;;;;;;;0.10;0.10;;;;;;;18.13;74.90;101784.66;10399747;28;20037;-64
2021/07/10 07:24:15;;;;;;;0.10;0.10;;;;;;;18.30;75.22;101796.91;10389591;28;20028;-64
2021/07/10 07:29:16;;;;;;;0.10;0.10;;;;;;;18.50;75.52;101803.41;10387596;28;20018;-64
2021/07/10 07:34:16;;;;;;;0.10;0.10;;;;;;;18.73;75.54;101802.44;10383342;28;20025;-65
2021/07/10 07:39:17;;;;;;;0.10;0.10;;;;;;;18.91;73.41;101799.38;10387588;28;20034;-65
2021/07/10 07:44:17;;;;;;;0.10;0.10;;;;;;;18.96;74.00;101797.75;10386738;28;20397;-65
2021/07/10 07:49:17;;;;;;;0.10;0.10;;;;;;;19.09;71.09;101801.63;10393621;28;20384;-64
2021/07/10 07:54:18;;;;;;;0.10;0.10;;;;;;;19.21;69.96;101808.19;10382534;28;20125;-65
2021/07/10 07:59:18;;;;;;;0.03;0.03;;;;;;;19.37;69.98;101802.56;10386573;28;20026;-64
2021/07/10 08:04:18;;;;;;;0.10;0.10;;;;;;;19.52;71.17;101799.78;10390864;28;20029;-63
2021/07/10 08:09:19;;;;;;;0.10;0.10;;;;;;;19.29;72.39;101801.84;10386911;28;20029;-64
2021/07/10 08:14:19;;;;;;;0.10;0.10;;;;;;;18.96;74.26;101803.16;10395859;28;20025;-64
2021/07/10 08:19:20;;;;;;;0.10;0.10;;;;;;;18.79;74.37;101812.50;10390818;28;20049;-63
2021/07/10 08:24:20;;;;;;;0.10;0.10;;;;;;;18.73;74.94;101813.22;10396475;28;20014;-64
2021/07/10 08:29:20;;;;;;;0.10;0.10;;;;;;;18.86;74.59;101816.13;10380680;28;20640;-64
2021/07/10 08:34:21;;;;;;;0.10;0.10;;;;;;;19.12;73.53;101815.59;10387089;28;20045;-64
2021/07/10 08:39:21;;;;;;;0.10;0.10;;;;;;;19.40;73.81;101818.38;10367591;28;20026;-63
2021/07/10 08:44:23;;;;;;;0.10;0.10;;;;;;;19.79;71.48;101813.53;10370976;28;20028;-63
2021/07/10 08:49:25;;;;;;;0.03;0.03;;;;;;;20.18;68.21;101802.13;10405399;28;20018;-64
2021/07/10 08:54:25;;;;;;;0.00;0.00;;;;;;;20.82;68.75;101800.16;10374677;28;20021;-63
2021/07/10 08:59:26;;;;;;;0.10;0.10;;;;;;;21.25;64.10;101793.38;10411066;28;20480;-63
2021/07/10 09:04:26;;;;;;;0.00;0.00;;;;;;;21.64;63.57;101785.50;10414060;28;20397;-63
2021/07/10 09:09:47;;;;;;;0.10;0.10;;;;;;;22.11;63.91;101791.72;10399168;28;20014;-63
2021/07/10 09:14:47;;;;;;;0.10;0.10;;;;;;;22.56;61.93;101776.34;10397374;28;20842;-63
2021/07/10 09:19:48;;;;;;;0.10;0.10;;;;;;;23.39;59.01;101766.47;10381826;28;20156;-63
2021/07/10 09:24:49;;;;;;;0.00;0.00;;;;;;;23.68;58.28;101775.84;10372388;28;20623;-63
2021/07/10 09:29:50;;;;;;;0.10;0.10;;;;;;;23.93;60.03;101775.81;10375685;28;20026;-62
2021/07/10 09:34:54;;;;;;;0.10;0.10;;;;;;;23.80;57.73;101771.38;10372159;28;20017;-64
2021/07/10 09:40:00;;;;;;;0.10;0.10;;;;;;;23.39;59.49;101769.19;10394856;28;20365;-63
2021/07/10 09:45:01;;;;;;;0.10;0.10;;;;;;;23.80;59.24;101768.66;10398861;28;20022;-63
2021/07/10 09:50:06;;;;;;;0.10;0.10;;;;;;;23.97;57.82;101777.06;10366729;28;20022;-63
2021/07/10 09:55:09;;;;;;;0.10;0.10;;;;;;;23.75;56.95;101773.09;10369066;28;20050;-63
2021/07/10 10:00:15;;;;;;;0.10;0.10;;;;;;;24.65;56.49;101765.16;10353713;28;20052;-63
2021/07/10 10:05:18;;;;;;;0.10;0.10;;;;;;;24.85;55.24;101768.44;10355335;28;20057;-63
2021/07/10 10:10:32;;;;;;;0.10;0.10;;;;;;;24.54;53.31;101763.22;10372174;28;20048;-63
2021/07/10 10:15:37;;;;;;;0.10;0.10;;;;;;;25.07;54.77;101757.00;10372412;28;20457;-63
2021/07/10 10:20:39;;;;;;;0.10;0.10;;;;;;;25.04;53.08;101754.75;10371823;28;20512;-63
2021/07/10 10:25:40;;;;;;;0.00;0.00;;;;;;;24.30;51.92;101767.69;10371820;28;20026;-63
2021/07/10 10:30:41;;;;;;;0.00;0.00;;;;;;;23.80;54.29;101767.81;10353815;28;20489;-63
2021/07/10 10:35:41;;;;;;;0.00;0.00;;;;;;;24.01;53.65;101775.53;10371593;28;20247;-63
2021/07/10 10:40:42;;;;;;;0.10;0.10;;;;;;;23.49;55.23;101783.94;10371232;28;20040;-62
2021/07/10 10:45:44;;;;;;;0.10;0.10;;;;;;;23.72;56.15;101774.38;10371121;28;20018;-63
2021/07/10 10:50:44;;;;;;;0.10;0.10;;;;;;;23.80;53.78;101776.81;10370419;28;20485;-63
2021/07/10 10:55:46;;;;;;;0.10;0.10;;;;;;;23.93;53.67;101773.94;10369633;28;20026;-63
2021/07/10 11:00:49;;;;;;;0.10;0.10;;;;;;;23.90;53.66;101768.94;10370614;28;20061;-63
2021/07/10 11:05:55;;;;;;;0.10;0.10;;;;;;;24.69;53.89;101768.25;10370402;28;20503;-63
2021/07/10 11:10:58;;;;;;;0.05;0.05;;;;;;;24.53;50.55;101772.47;10369506;28;20052;-63
2021/07/10 11:16:04;;;;;;;0.10;0.10;;;;;;;24.12;52.66;101776.69;10369925;28;20464;-63
2021/07/10 11:21:05;;;;;;;0.10;0.10;;;;;;;23.93;54.09;101773.94;10358813;28;20558;-63
2021/07/10 11:26:15;;;;;;;0.10;0.10;;;;;;;24.69;53.33;101760.09;10373721;28;20022;-63
2021/07/10 11:31:20;;;;;;;0.00;0.00;;;;;;;25.01;49.57;101763.41;10379903;28;20030;-63
2021/07/10 11:36:36;;;;;;;0.00;0.00;;;;;;;24.53;50.43;101761.56;10364019;28;20018;-63
2021/07/10 11:41:37;;;;;;;0.10;0.10;;;;;;;24.06;53.20;101761.28;10366948;28;20041;-64
2021/07/10 11:46:58;;;;;;;0.10;0.10;;;;;;;23.95;53.85;101760.94;10374228;28;20026;-66
2021/07/10 11:51:59;;;;;;;0.10;0.10;;;;;;;23.89;51.69;101758.31;10382128;28;20044;-63
2021/07/10 11:57:00;;;;;;;0.10;0.10;;;;;;;23.99;53.96;101763.22;10374284;28;20041;-61
2021/07/10 12:02:21;;;;;;;0.00;0.00;;;;;;;24.26;53.11;101759.16;10361476;28;20457;-61
2021/07/10 12:07:22;;;;;;;0.00;0.00;;;;;;;24.32;54.25;101763.69;10362350;28;20618;-62
2021/07/10 12:12:22;;;;;;;0.10;0.10;;;;;;;24.05;52.43;101775.91;10379596;22;20496;-63
2021/07/10 12:17:24;;;;;;;0.10;0.10;;;;;;;23.95;52.90;101766.38;10417193;28;20044;-62
2021/07/10 12:22:24;;;;;;;0.10;0.10;;;;;;;23.98;53.20;101758.84;10441788;28;20013;-64
2021/07/10 12:27:30;;;;;;;0.10;0.10;;;;;;;23.88;55.11;101751.19;10417788;28;20037;-64
2021/07/10 12:32:32;;;;;;;0.10;0.10;;;;;;;24.33;53.25;101754.44;10422376;28;20407;-61
2021/07/10 12:37:35;;;;;;;0.00;0.00;;;;;;;24.62;52.76;101746.56;10458724;28;20025;-62
2021/07/10 12:42:36;;;;;;;0.10;0.10;;;;;;;24.54;51.80;101750.44;10457875;28;20502;-63
2021/07/10 12:47:38;;;;;;;0.10;0.10;;;;;;;24.60;51.74;101745.97;10458016;28;20027;-61
2021/07/10 12:52:57;;;;;;;0.10;0.10;;;;;;;24.68;50.50;101733.91;10456190;28;20033;-61
2021/07/10 12:57:58;;;;;;;0.10;0.10;;;;;;;24.30;51.09;101730.41;10457636;28;20021;-60
2021/07/10 13:03:01;;;;;;;0.00;0.00;;;;;;;23.72;51.73;101730.84;10432706;28;20021;-63
2021/07/10 13:08:15;;;;;;;0.10;0.10;;;;;;;23.72;53.69;101728.94;10416043;28;20083;-61
2021/07/10 13:13:22;;;;;;;0.00;0.00;;;;;;;23.90;52.18;101725.41;10397571;28;20116;-61
2021/07/10 13:18:28;;;;;;;0.10;0.10;;;;;;;24.10;53.30;101727.09;10412607;28;20036;-63
2021/07/10 13:23:33;;;;;;;0.00;0.00;;;;;;;24.42;53.53;101722.28;10412160;28;20025;-63
2021/07/10 13:28:38;;;;;;;0.10;0.10;;;;;;;24.39;51.26;101728.19;10414781;28;20083;-63
2021/07/10 13:33:41;;;;;;;0.00;0.00;;;;;;;24.21;51.47;101720.06;10413235;28;20106;-62
2021/07/10 13:38:44;;;;;;;0.00;0.00;;;;;;;24.06;51.17;101717.72;10414931;28;20028;-64
2021/07/10 13:43:57;;;;;;;0.00;0.00;;;;;;;23.71;53.15;101731.91;10414061;28;20021;-63
2021/07/10 13:49:14;;;;;;;0.10;0.10;;;;;;;23.52;54.81;101739.16;10413368;28;20087;-63
2021/07/10 13:54:26;;;;;;;0.10;0.10;;;;;;;22.88;55.61;101738.38;10414108;28;20292;-62
2021/07/10 13:59:27;;;;;;;0.00;0.00;;;;;;;22.62;57.76;101735.81;10413970;28;20041;-62
2021/07/10 14:04:27;;;;;;;0.10;0.10;;;;;;;22.53;59.50;101738.78;10398518;28;20025;-60
2021/07/10 14:09:27;;;;;;;0.10;0.10;;;;;;;22.48;56.79;101727.72;10398356;28;20022;-61
2021/07/10 14:14:28;;;;;;;0.10;0.10;;;;;;;22.49;56.05;101725.88;10401369;28;20022;-63
2021/07/10 14:19:29;;;;;;;0.10;0.10;;;;;;;22.30;58.56;101717.56;10386407;28;20077;-64
2021/07/10 14:24:29;;;;;;;0.10;0.10;;;;;;;22.34;58.33;101709.81;10369940;28;20025;-64
2021/07/10 14:29:30;;;;;;;0.00;0.00;;;;;;;22.70;55.53;101713.84;10374960;28;20104;-62
2021/07/10 14:34:30;;;;;;;0.10;0.10;;;;;;;22.66;55.95;101712.59;10396552;28;20427;-63
2021/07/10 14:39:30;;;;;;;0.03;0.03;;;;;;;22.81;56.10;101700.38;10397962;28;20503;-63
2021/07/10 14:44:31;;;;;;;0.10;0.10;;;;;;;23.05;56.11;101685.19;10388054;28;20017;-61
2021/07/10 14:49:31;;;;;;;0.00;0.00;;;;;;;22.96;53.87;101688.41;10410360;28;20040;-60
2021/07/10 14:54:32;;;;;;;0.10;0.10;;;;;;;22.25;57.27;101686.72;10409785;28;20024;-62
2021/07/10 14:59:33;;;;;;;0.10;0.10;;;;;;;22.08;58.31;101694.50;10409662;28;20037;-60
2021/07/10 15:04:33;;;;;;;0.10;0.10;;;;;;;22.35;56.97;101689.81;10408846;28;20252;-62
2021/07/10 15:09:34;;;;;;;0.10;0.10;;;;;;;22.17;57.07;101681.50;10404210;28;20021;-61
2021/07/10 15:14:34;;;;;;;0.00;0.00;;;;;;;22.23;57.51;101672.53;10382017;28;20063;-63
2021/07/10 15:19:34;;;;;;;0.10;0.10;;;;;;;22.36;57.45;101669.75;10390296;28;20037;-64
2021/07/10 15:24:35;;;;;;;0.10;0.10;;;;;;;22.28;56.92;101680.84;10392331;28;20092;-64
2021/07/10 15:29:35;;;;;;;0.10;0.10;;;;;;;22.20;59.96;101675.69;10408084;28;20782;-64
2021/07/10 15:34:35;;;;;;;0.10;0.10;;;;;;;21.88;59.56;101664.72;10403264;28;20029;-63
2021/07/10 15:39:36;;;;;;;0.00;0.00;;;;;;;21.87;59.16;101663.03;10394801;28;20038;-63
2021/07/10 15:44:36;;;;;;;0.10;0.10;;;;;;;21.96;60.01;101669.06;10404793;28;20268;-67
2021/07/10 15:49:36;;;;;;;0.10;0.10;;;;;;;21.69;58.75;101661.84;10410130;28;20033;-64
2021/07/10 15:54:37;;;;;;;0.10;0.10;;;;;;;21.50;58.77;101659.16;10407304;28;20103;-65
2021/07/10 15:59:37;;;;;;;0.10;0.10;;;;;;;21.25;59.88;101657.09;10409196;28;20488;-64
2021/07/10 16:04:37;;;;;;;0.10;0.10;;;;;;;21.10;62.12;101659.19;10408641;28;20495;-64
2021/07/10 16:09:38;;;;;;;0.00;0.00;;;;;;;20.94;61.99;101658.56;10408936;28;20029;-64
2021/07/10 16:14:38;;;;;;;0.10;0.10;;;;;;;20.93;61.30;101650.63;10408878;28;20026;-63
2021/07/10 16:19:38;;;;;;;0.10;0.10;;;;;;;20.96;61.12;101647.50;10409429;28;20322;-64
2021/07/10 16:24:39;;;;;;;0.00;0.00;;;;;;;20.96;61.25;101647.50;10407818;28;20025;-65
2021/07/10 16:29:39;;;;;;;0.10;0.10;;;;;;;20.88;61.10;101648.53;10409316;28;20061;-64
2021/07/10 16:34:39;;;;;;;0.10;0.10;;;;;;;20.79;62.44;101655.19;10423784;28;20009;-63
2021/07/10 16:39:40;;;;;;;0.10;0.10;;;;;;;20.75;61.57;101652.09;10450370;28;20029;-62
2021/07/10 16:44:40;;;;;;;0.10;0.10;;;;;;;20.65;61.76;101661.63;10448673;28;20143;-64
2021/07/10 16:49:41;;;;;;;0.00;0.00;;;;;;;20.61;62.75;101660.38;10449982;28;20025;-65
2021/07/10 16:54:41;;;;;;;0.10;0.10;;;;;;;20.55;63.41;101653.94;10449325;28;20279;-64
2021/07/10 16:59:41;;;;;;;0.10;0.10;;;;;;;20.52;62.58;101659.72;10449627;28;20029;-64
2021/07/10 17:04:42;;;;;;;0.00;0.00;;;;;;;20.51;61.50;101658.06;10423297;28;20177;-64
2021/07/10 17:09:42;;;;;;;0.10;0.10;;;;;;;20.57;63.61;101657.28;10410287;28;20464;-64
2021/07/10 17:14:42;;;;;;;0.10;0.10;;;;;;;20.61;62.89;101655.81;10415232;28;20038;-64
2021/07/10 17:19:43;;;;;;;0.10;0.10;;;;;;;20.67;63.44;101659.56;10415881;28;20056;-64
2021/07/10 17:24:43;;;;;;;0.07;0.07;;;;;;;20.66;61.29;101657.91;10414827;28;20029;-65
2021/07/10 17:29:43;;;;;;;0.10;0.10;;;;;;;20.62;62.52;101654.75;10415353;28;20041;-65
2021/07/10 17:34:44;;;;;;;0.10;0.10;;;;;;;20.64;64.53;101655.41;10413020;28;20021;-66
2021/07/10 17:39:44;;;;;;;0.10;0.10;;;;;;;20.60;63.10;101659.56;10414689;28;20179;-65
2021/07/10 17:44:45;;;;;;;0.00;0.00;;;;;;;20.53;64.04;101664.94;10414299;28;20032;-64
2021/07/10 17:49:45;;;;;;;0.00;0.00;;;;;;;20.44;65.73;101670.72;10414540;28;20086;-63
2021/07/10 17:54:45;;;;;;;0.10;0.10;;;;;;;20.35;64.40;101670.06;10413941;28;20026;-64
2021/07/10 17:59:45;;;;;;;0.10;0.10;;;;;;;20.17;62.82;101675.22;10413890;28;20048;-65
2021/07/10 18:04:46;;;;;;;0.10;0.10;;;;;;;20.03;64.24;101675.16;10413295;28;20107;-66
2021/07/10 18:09:46;;;;;;;0.10;0.10;;;;;;;19.93;64.78;101679.28;10413409;28;20035;-64
2021/07/10 18:14:46;;;;;;;0.10;0.10;;;;;;;19.78;64.62;101676.69;10440443;22;20052;-60
2021/07/10 18:19:47;;;;;;;0.00;0.00;;;;;;;19.63;66.14;101679.47;10452120;28;20080;-62
2021/07/10 18:24:47;;;;;;;0.10;0.10;;;;;;;19.51;66.57;101691.88;10451022;28;20120;-62
2021/07/10 18:29:48;;;;;;;0.10;0.10;;;;;;;19.39;69.21;101699.69;10432525;28;20061;-62
2021/07/10 18:34:48;;;;;;;0.00;0.00;;;;;;;19.29;68.72;101688.41;10369322;28;20022;-62
2021/07/10 18:39:49;;;;;;;0.10;0.10;;;;;;;19.17;68.73;101694.31;10369318;28;20477;-62
2021/07/10 18:44:49;;;;;;;0.10;0.10;;;;;;;19.13;68.45;101703.00;10369146;28;20033;-62
2021/07/10 18:49:49;;;;;;;0.10;0.10;;;;;;;19.06;68.58;101699.41;10368870;28;20030;-62
2021/07/10 18:54:50;;;;;;;0.10;0.10;;;;;;;18.98;70.73;101697.69;10368270;28;20418;-62
2021/07/10 18:59:50;;;;;;;0.10;0.10;;;;;;;18.92;71.66;101704.69;10369090;28;20056;-62
2021/07/10 19:04:51;;;;;;;0.10;0.10;;;;;;;18.86;71.46;101700.06;10368334;28;20022;-62
2021/07/10 19:09:51;;;;;;;0.10;0.10;;;;;;;18.80;71.92;101700.81;10367944;28;20046;-63
2021/07/10 19:14:52;;;;;;;0.10;0.10;;;;;;;18.70;72.84;101701.13;10367986;28;20057;-62
2021/07/10 19:19:53;;;;;;;0.10;0.10;;;;;;;18.65;71.88;101703.56;10367730;28;20026;-63
2021/07/10 19:24:53;;;;;;;0.00;0.00;;;;;;;18.60;71.51;101702.44;10377943;28;20035;-61
2021/07/10 19:29:53;;;;;;;0.10;0.10;;;;;;;18.53;71.46;101713.19;10408847;28;20552;-61
2021/07/10 19:34:54;;;;;;;0.10;0.10;;;;;;;18.39;71.99;101717.56;10398326;28;20113;-61
2021/07/10 19:39:54;;;;;;;0.10;0.10;;;;;;;18.25;72.58;101724.66;10366283;28;20315;-61
2021/07/10 19:44:54;;;;;;;0.10;0.10;;;;;;;18.08;73.00;101717.78;10367270;28;20086;-61
2021/07/10 19:49:55;;;;;;;0.00;0.00;;;;;;;17.93;73.11;101725.88;10367294;28;20091;-63
2021/07/10 19:54:55;;;;;;;0.10;0.10;;;;;;;17.82;73.47;101731.72;10367022;28;20396;-62
2021/07/10 19:59:57;;;;;;;0.10;0.10;;;;;;;17.67;73.93;101722.78;10367064;28;20033;-62
2021/07/10 20:04:57;;;;;;;0.10;0.10;;;;;;;17.58;74.08;101741.72;10375978;28;20115;-63
2021/07/10 20:09:58;;;;;;;0.10;0.10;;;;;;;17.48;74.46;101742.97;10407760;28;20095;-62
2021/07/10 20:14:58;;;;;;;0.10;0.10;;;;;;;17.36;75.23;101734.50;10407224;28;20025;-62
2021/07/10 20:19:58;;;;;;;0.10;0.10;;;;;;;17.25;75.62;101738.47;10407783;28;20040;-63
2021/07/10 20:24:58;;;;;;;0.07;0.07;;;;;;;17.15;76.03;101736.00;10407459;28;20021;-62
2021/07/10 20:29:59;;;;;;;0.10;0.10;;;;;;;17.09;76.93;101735.91;10407940;28;20029;-62
2021/07/10 20:34:59;;;;;;;0.10;0.10;;;;;;;17.04;77.06;101747.19;10406958;28;20033;-61
2021/07/10 20:40:00;;;;;;;0.10;0.10;;;;;;;16.99;77.33;101749.63;10406933;28;20029;-63
2021/07/10 20:45:00;;;;;;;0.10;0.10;;;;;;;16.91;77.66;101738.91;10409623;28;20105;-62
2021/07/10 20:50:02;;;;;;;0.10;0.10;;;;;;;16.77;77.87;101745.03;10414733;28;20025;-62
2021/07/10 20:55:07;;;;;;;0.10;0.10;;;;;;;16.61;78.21;101749.47;10414269;28;20072;-62
2021/07/10 21:00:11;;;;;;;0.10;0.10;;;;;;;16.51;78.26;101744.28;10412293;28;20025;-62
2021/07/10 21:05:13;;;;;;;0.10;0.10;;;;;;;16.42;78.66;101753.41;10413774;28;20368;-60
2021/07/10 21:10:15;;;;;;;0.10;0.10;;;;;;;16.30;79.23;101755.66;10413550;28;20048;-61
2021/07/10 21:15:17;;;;;;;0.10;0.10;;;;;;;16.20;79.45;101760.41;10413495;28;20049;-60
2021/07/10 21:20:23;;;;;;;0.10;0.10;;;;;;;16.06;80.00;101758.44;10411392;28;20029;-61
2021/07/10 21:25:27;;;;;;;0.10;0.10;;;;;;;15.91;80.12;101765.50;10413774;28;20037;-60
2021/07/10 21:30:27;;;;;;;0.10;0.10;;;;;;;15.67;80.64;101756.47;10412859;28;20124;-62
2021/07/10 21:35:28;;;;;;;0.10;0.10;;;;;;;15.39;81.75;101766.72;10412788;28;20125;-61
2021/07/10 21:40:28;;;;;;;0.10;0.10;;;;;;;15.19;82.94;101771.59;10411638;28;20350;-62
2021/07/10 21:45:29;;;;;;;0.10;0.10;;;;;;;15.07;83.45;101770.25;10412467;28;20025;-61
2021/07/10 21:50:30;;;;;;;0.10;0.10;;;;;;;15.02;83.99;101764.53;10411835;28;20051;-61
2021/07/10 21:55:31;;;;;;;0.10;0.10;;;;;;;14.94;83.76;101773.38;10411349;28;20472;-62
2021/07/10 22:00:31;;;;;;;0.10;0.10;;;;;;;14.83;84.78;101779.06;10410438;28;20030;-61
2021/07/10 22:05:32;;;;;;;0.10;0.10;;;;;;;14.69;84.99;101780.56;10411325;28;20021;-61
2021/07/10 22:10:32;;;;;;;0.10;0.10;;;;;;;14.58;85.87;101783.53;10411064;28;20270;-62
2021/07/10 22:15:33;;;;;;;0.15;0.15;;;;;;;14.43;85.58;101791.31;10410936;28;20541;-62
2021/07/10 22:20:34;;;;;;;0.10;0.10;;;;;;;14.28;86.72;101796.41;10409221;28;20075;-62
2021/07/10 22:25:34;;;;;;;0.10;0.10;;;;;;;14.22;87.44;101799.72;10410451;28;20471;-60
2021/07/10 22:30:36;;;;;;;0.10;0.10;;;;;;;14.14;87.68;101795.19;10410184;28;20056;-62
2021/07/10 22:35:36;;;;;;;0.10;0.10;;;;;;;14.03;88.25;101796.28;10386894;28;20542;-60
2021/07/10 22:40:36;;;;;;;0.10;0.10;;;;;;;13.93;88.26;101792.88;10394665;28;20084;-60
2021/07/10 22:45:38;;;;;;;0.10;0.10;;;;;;;13.81;88.72;101791.44;10387223;28;20014;-61
2021/07/10 22:50:38;;;;;;;0.10;0.10;;;;;;;13.74;89.44;101783.19;10394522;28;20480;-61
2021/07/10 22:55:40;;;;;;;0.10;0.10;;;;;;;13.70;90.08;101794.38;10374117;28;20097;-61
2021/07/10 23:00:40;;;;;;;0.10;0.10;;;;;;;13.62;90.42;101794.34;10388825;28;20377;-60
2021/07/10 23:05:41;;;;;;;0.10;0.10;;;;;;;13.53;90.16;101783.56;10386108;28;20025;-60